Ash Lake, Minnesota
Current Conditions -  °F | °C
As of 11:33 PM on Tuesday 21 Oct 2014 (Local Time) from KORB Reporting Station
Clear Clear  
Wind Chill: 29°   Ceiling: Unl
Heat Index: 36°   Visibility: 10mi
Dew Point: 32°   Wind: 9mph
Humidity: 87%   Direction: 140°SE
Pressure: 30.11"   Gusts: NA
Location:  48.1455°N, 92.8504°W
Report Text: KORB 220433Z AUTO 14008KT 10SM CLR 02/00 A3011 RMK AO2
Loading
Personal Weather Stations






























Interactive Weather Map
Tropical Storm Tracking
New forecast layout! Learn more

10-Day Weather Forecast

Advertisements
Track Severe Weather on mobile